Terminal Aerodrome Forecast
Issued by NWS Shreveport, LA

Home | Current Version | Previous Version | Text Only | Print | Product List | Glossary On
Versions: 1 2 3 4 5 6 7 8 9 10 11 12 13 14
000
FTUS44 KSHV 041734
TAFLFK
TAF
KLFK 041734Z 0418/0518 14008KT P6SM SCT045 SCT250
     FM050000 13006KT P6SM SCT050 SCT250
     FM050800 12005KT P6SM OVC015
      TEMPO 0509/0512 5SM BR BKN015
     FM051200 10007KT 3SM BR BKN007 OVC015
     FM051400 12010KT P6SM OVC015
     FM051600 13013G19KT P6SM OVC025=

USA.gov is the U.S. government's official web portal to all federal, state and local government web resources and services.